Time;durP1;ratioP1;P1;durP2;ratioP2;P2;SDS_P1;SDS_P2;PMS_P1;PMS_P2;Temp;Humidity;BMP_temperature;BMP_pressure;BME280_temperature;BME280_humidity;BME280_pressure;Samples;Min_cycle;Max_cycle;Signal;HPM_P1;HPM_P2
2022/04/23 00:01:15;;;;;;;12.60;9.00;;;10.40;99.90;;;;;;5048774;28;20048;-46
2022/04/23 00:03:41;;;;;;;13.23;9.07;;;10.10;99.90;;;;;;5048478;28;20044;-42
2022/04/23 00:06:07;;;;;;;13.65;9.05;;;10.20;99.90;;;;;;5048368;28;20120;-42
2022/04/23 00:08:33;;;;;;;12.48;9.00;;;9.60;99.90;;;;;;5048418;28;20045;-42
2022/04/23 00:11:01;;;;;;;14.50;9.38;;;10.30;99.90;;;;;;5048200;28;20400;-42
2022/04/23 00:13:27;;;;;;;12.70;8.75;;;9.20;99.90;;;;;;5048415;28;20052;-42
2022/04/23 00:15:53;;;;;;;14.60;8.40;;;9.30;99.90;;;;;;5051582;28;20392;-43
2022/04/23 00:18:19;;;;;;;12.77;8.85;;;9.20;99.90;;;;;;5052558;28;20036;-42
2022/04/23 00:20:48;;;;;;;14.00;9.38;;;9.20;99.90;;;;;;5052042;28;20092;-43
2022/04/23 00:23:14;;;;;;;13.70;8.32;;;9.20;99.90;;;;;;5052348;28;20424;-42
2022/04/23 00:25:41;;;;;;;12.70;8.35;;;9.00;99.90;;;;;;5051823;28;20075;-44
2022/04/23 00:28:07;;;;;;;10.73;7.70;;;9.10;99.90;;;;;;5052288;28;20041;-42
2022/04/23 00:30:33;;;;;;;10.80;8.18;;;9.50;99.90;;;;;;5052201;28;20070;-42
2022/04/23 00:33:00;;;;;;;13.57;8.00;;;9.40;99.90;;;;;;5052422;28;20053;-43
2022/04/23 00:35:26;;;;;;;13.00;8.85;;;9.10;99.90;;;;;;5052257;28;20044;-42
2022/04/23 00:37:52;;;;;;;13.20;8.27;;;9.40;99.90;;;;;;5052169;28;20423;-41
2022/04/23 00:40:19;;;;;;;10.80;7.85;;;9.50;99.90;;;;;;5052091;28;20036;-42
2022/04/23 00:42:46;;;;;;;12.00;6.90;;;9.10;99.90;;;;;;5052182;28;20049;-42
2022/04/23 00:45:12;;;;;;;11.20;7.53;;;9.20;99.90;;;;;;5051758;28;20045;-44
2022/04/23 00:47:38;;;;;;;13.82;7.90;;;9.30;99.90;;;;;;5052292;28;20051;-42
2022/04/23 00:50:04;;;;;;;11.75;7.53;;;9.10;99.90;;;;;;5050792;28;20040;-46
2022/04/23 00:52:32;;;;;;;13.50;8.27;;;8.70;99.90;;;;;;5052050;28;20041;-42
2022/04/23 00:54:59;;;;;;;14.90;7.88;;;9.10;99.90;;;;;;5051867;28;20063;-42
2022/04/23 00:57:25;;;;;;;11.32;8.15;;;9.00;99.90;;;;;;5052272;28;20045;-41
2022/04/23 00:59:52;;;;;;;12.32;8.55;;;8.60;99.90;;;;;;5051544;28;20076;-43
2022/04/23 01:02:18;;;;;;;18.92;9.05;;;9.40;99.90;;;;;;5051816;28;20045;-42
2022/04/23 01:04:44;;;;;;;12.88;8.23;;;8.40;99.90;;;;;;5051665;28;20115;-41
2022/04/23 01:07:13;;;;;;;14.13;8.52;;;9.10;99.90;;;;;;5051426;28;20083;-42
2022/04/23 01:09:44;;;;;;;16.48;9.65;;;8.30;99.90;;;;;;5051589;28;20045;-41
2022/04/23 01:12:11;;;;;;;16.57;9.53;;;8.30;99.90;;;;;;5051739;28;20076;-47
2022/04/23 01:15:01;;;;;;;13.57;9.15;;;8.40;99.90;;;;;;5050704;28;20049;-42
2022/04/23 01:17:27;;;;;;;16.15;9.70;;;8.30;99.90;;;;;;5051658;28;20174;-42
2022/04/23 01:19:53;;;;;;;17.02;10.07;;;8.20;99.90;;;;;;5050317;28;20438;-42
2022/04/23 01:22:19;;;;;;;15.43;9.23;;;8.10;99.90;;;;;;5051700;28;20041;-42
2022/04/23 01:24:45;;;;;;;16.17;9.80;;;8.40;99.90;;;;;;5051500;28;20033;-43
2022/04/23 01:27:10;;;;;;;14.55;9.65;;;7.80;99.90;;;;;;5051248;28;20033;-42
2022/04/23 01:29:38;;;;;;;18.35;10.18;;;8.00;99.90;;;;;;5050802;28;20056;-43
2022/04/23 01:32:05;;;;;;;17.27;10.38;;;8.00;99.90;;;;;;5051021;28;20049;-43
2022/04/23 01:34:31;;;;;;;14.55;10.48;;;8.00;99.90;;;;;;5050926;28;20052;-43
2022/04/23 01:36:57;;;;;;;13.75;9.55;;;7.80;99.90;;;;;;5050947;28;20040;-42
2022/04/23 01:39:23;;;;;;;15.75;10.70;;;7.90;99.90;;;;;;5051465;28;20056;-45
2022/04/23 01:41:48;;;;;;;16.83;11.13;;;8.60;99.90;;;;;;5051390;28;20138;-42
2022/04/23 01:44:15;;;;;;;17.00;11.00;;;8.10;99.90;;;;;;5051255;28;20041;-41
2022/04/23 01:46:40;;;;;;;15.43;10.30;;;8.40;99.90;;;;;;5051268;28;20068;-43
2022/04/23 01:49:06;;;;;;;18.83;10.85;;;7.90;99.90;;;;;;5050951;28;20083;-42
2022/04/23 01:51:32;;;;;;;16.77;10.90;;;8.20;99.90;;;;;;5051141;28;20056;-44
2022/04/23 01:53:58;;;;;;;16.35;11.35;;;7.80;99.90;;;;;;5050595;28;20049;-42
2022/04/23 01:56:24;;;;;;;17.92;11.60;;;7.80;99.90;;;;;;5050745;28;20095;-41
2022/04/23 01:58:49;;;;;;;16.23;12.10;;;7.80;99.90;;;;;;5051112;28;20454;-42
2022/04/23 02:01:17;;;;;;;16.80;11.95;;;7.90;99.90;;;;;;5050660;28;20053;-42
2022/04/23 02:03:43;;;;;;;17.65;12.73;;;8.60;99.90;;;;;;5051064;28;20083;-43
2022/04/23 02:06:08;;;;;;;19.60;12.32;;;7.90;99.90;;;;;;5050384;28;20049;-42
2022/04/23 02:08:34;;;;;;;19.00;11.98;;;8.10;99.90;;;;;;5051002;28;20056;-44
2022/04/23 02:11:00;;;;;;;19.20;11.85;;;7.90;99.90;;;;;;5050833;28;20048;-42
2022/04/23 02:13:27;;;;;;;19.15;11.98;;;7.70;99.90;;;;;;5050854;28;20048;-44
2022/04/23 02:15:53;;;;;;;18.83;11.02;;;8.50;99.90;;;;;;5049780;28;20045;-41
2022/04/23 02:18:21;;;;;;;20.23;12.13;;;7.70;99.90;;;;;;5050057;28;20045;-42
2022/04/23 02:20:47;;;;;;;19.27;11.95;;;7.60;99.90;;;;;;5050599;28;20130;-42
2022/04/23 02:23:13;;;;;;;19.13;13.38;;;7.50;99.90;;;;;;5050024;28;20044;-42
2022/04/23 02:25:38;;;;;;;18.77;13.10;;;7.50;99.90;;;;;;5050502;28;20518;-42
2022/04/23 02:28:05;;;;;;;19.95;12.98;;;7.40;99.90;;;;;;5049911;28;20123;-42
2022/04/23 02:30:32;;;;;;;19.70;12.30;;;7.40;99.90;;;;;;5050007;28;20064;-41
2022/04/23 02:32:58;;;;;;;19.55;12.55;;;7.40;99.90;;;;;;5049884;28;20078;-42
2022/04/23 02:35:24;;;;;;;21.38;12.68;;;7.30;99.90;;;;;;5050289;28;20128;-41
2022/04/23 02:37:53;;;;;;;22.88;13.30;;;7.40;99.90;;;;;;5049517;28;20231;-41
2022/04/23 02:40:19;;;;;;;19.70;13.55;;;7.40;99.90;;;;;;5050018;28;20063;-42
2022/04/23 02:42:45;;;;;;;20.73;13.43;;;7.30;99.90;;;;;;5049640;28;20556;-42
2022/04/23 02:45:15;;;;;;;18.13;13.10;;;7.30;99.90;;;;;;5049617;28;20037;-41
2022/04/23 02:47:52;;;;;;;19.55;13.40;;;7.30;99.90;;;;;;5048398;28;20567;-42
2022/04/23 02:50:28;;;;;;;21.50;13.32;;;7.30;99.90;;;;;;5049632;28;20041;-42
2022/04/23 02:52:55;;;;;;;18.85;13.02;;;7.30;99.90;;;;;;5049789;28;20118;-42
2022/04/23 02:55:22;;;;;;;20.02;13.88;;;7.30;99.90;;;;;;5049693;28;20049;-41
2022/04/23 02:57:48;;;;;;;19.38;13.35;;;7.30;99.90;;;;;;5049740;28;20401;-43
2022/04/23 03:00:14;;;;;;;20.67;14.55;;;7.20;99.90;;;;;;5049432;28;20052;-43
2022/04/23 03:02:41;;;;;;;17.98;13.10;;;7.30;99.90;;;;;;5049604;28;20548;-41
2022/04/23 03:05:10;;;;;;;21.33;13.52;;;8.20;99.90;;;;;;5049260;28;20119;-42
2022/04/23 03:07:36;;;;;;;20.05;14.30;;;7.30;99.90;;;;;;5049341;28;20163;-42
2022/04/23 03:10:07;;;;;;;20.83;13.18;;;7.40;99.90;;;;;;5049210;28;20128;-43
2022/04/23 03:12:33;;;;;;;21.48;13.88;;;7.30;99.90;;;;;;5049097;28;20048;-43
2022/04/23 03:14:58;;;;;;;22.15;14.25;;;7.30;99.90;;;;;;5048818;28;20097;-43
2022/04/23 03:17:26;;;;;;;23.27;14.30;;;8.10;99.90;;;;;;5048637;28;20507;-44
2022/04/23 03:19:52;;;;;;;20.20;14.50;;;7.20;99.90;;;;;;5049296;28;20449;-41
2022/04/23 03:22:20;;;;;;;18.85;14.18;;;7.10;99.90;;;;;;5048583;28;20060;-41
2022/04/23 03:24:46;;;;;;;20.58;13.95;;;7.20;99.90;;;;;;5030933;28;20055;-43
2022/04/23 03:27:12;;;;;;;22.50;15.13;;;7.20;99.90;;;;;;5048760;28;20042;-44
2022/04/23 03:29:39;;;;;;;23.17;14.75;;;7.10;99.90;;;;;;5048798;28;20055;-42
2022/04/23 03:32:05;;;;;;;20.73;14.75;;;7.00;99.90;;;;;;5048784;28;20053;-41
2022/04/23 03:34:31;;;;;;;27.48;14.48;;;7.00;99.90;;;;;;5048951;28;20045;-42
2022/04/23 03:36:57;;;;;;;20.98;14.15;;;7.60;99.90;;;;;;5049091;28;20097;-44
2022/04/23 03:39:23;;;;;;;22.60;14.60;;;6.90;99.90;;;;;;5048650;28;20093;-42
2022/04/23 03:41:48;;;;;;;20.23;14.30;;;6.80;99.90;;;;;;5048774;28;20044;-42
2022/04/23 03:44:14;;;;;;;19.83;14.88;;;6.90;99.90;;;;;;5048285;28;20044;-43
2022/04/23 03:46:40;;;;;;;23.58;15.40;;;6.90;99.90;;;;;;5048752;28;20167;-41
2022/04/23 03:49:07;;;;;;;24.85;14.45;;;7.50;99.90;;;;;;5047795;28;20056;-43
2022/04/23 03:51:34;;;;;;;22.77;15.90;;;6.60;99.90;;;;;;5048594;28;20492;-44
2022/04/23 03:54:00;;;;;;;23.05;16.17;;;7.60;99.90;;;;;;5048723;28;20060;-41
2022/04/23 03:56:26;;;;;;;22.42;14.27;;;7.00;99.90;;;;;;5046886;28;20412;-41
2022/04/23 03:58:53;;;;;;;21.85;14.38;;;7.40;99.90;;;;;;5048467;28;20047;-42
2022/04/23 04:01:18;;;;;;;24.02;15.52;;;7.40;99.90;;;;;;5048133;28;20044;-42
2022/04/23 04:03:44;;;;;;;21.02;13.77;;;6.70;99.90;;;;;;5048420;28;20392;-42
2022/04/23 04:06:10;;;;;;;24.20;15.80;;;6.60;99.90;;;;;;5048066;28;20052;-41
2022/04/23 04:08:36;;;;;;;19.23;14.35;;;6.60;99.90;;;;;;5048505;28;20059;-42
2022/04/23 04:11:02;;;;;;;22.17;13.88;;;6.50;99.90;;;;;;5048385;28;20048;-41
2022/04/23 04:13:28;;;;;;;18.63;13.70;;;6.80;99.90;;;;;;5048437;28;20045;-42
2022/04/23 04:15:54;;;;;;;24.13;15.55;;;6.80;99.90;;;;;;5046729;28;20105;-43
2022/04/23 04:18:21;;;;;;;21.33;14.75;;;6.60;99.90;;;;;;5048348;28;20056;-42
2022/04/23 04:20:48;;;;;;;18.60;14.23;;;6.50;99.90;;;;;;5048410;28;20045;-42
2022/04/23 04:23:15;;;;;;;21.50;14.13;;;6.60;99.90;;;;;;5048054;28;20559;-41
2022/04/23 04:25:41;;;;;;;17.90;13.00;;;6.40;99.90;;;;;;5048293;28;20048;-41
2022/04/23 04:28:09;;;;;;;20.55;14.90;;;6.50;99.90;;;;;;5048249;28;20041;-43
2022/04/23 04:33:20;;;;;;;16.77;12.95;;;6.60;99.90;;;;;;5048003;28;20401;-42
2022/04/23 04:35:45;;;;;;;21.48;15.52;;;6.70;99.90;;;;;;5047992;28;20224;-42
2022/04/23 04:38:11;;;;;;;20.73;13.63;;;6.90;99.90;;;;;;5047880;28;20055;-42
2022/04/23 04:40:37;;;;;;;19.83;13.93;;;6.70;99.90;;;;;;5048142;28;20033;-41
2022/04/23 04:43:04;;;;;;;19.05;13.77;;;6.70;99.90;;;;;;5048420;28;20163;-42
2022/04/23 04:45:29;;;;;;;17.33;13.70;;;6.80;99.90;;;;;;5048334;28;20041;-42
2022/04/23 04:47:55;;;;;;;17.83;13.38;;;6.90;99.90;;;;;;5048339;28;20047;-42
2022/04/23 04:50:21;;;;;;;18.92;14.07;;;6.90;99.90;;;;;;5048755;28;20055;-41
2022/04/23 04:52:46;;;;;;;16.67;13.88;;;7.00;99.90;;;;;;5048693;28;20124;-41
2022/04/23 04:55:12;;;;;;;17.55;13.38;;;7.00;99.90;;;;;;5048425;28;20082;-41
2022/04/23 04:57:37;;;;;;;20.05;13.27;;;7.10;99.90;;;;;;5048295;28;20048;-41
2022/04/23 05:00:04;;;;;;;17.98;12.90;;;7.20;99.90;;;;;;5048622;28;20045;-42
2022/04/23 05:02:30;;;;;;;19.25;12.82;;;7.30;99.90;;;;;;5051614;28;20042;-41
2022/04/23 05:04:55;;;;;;;18.27;12.90;;;8.10;99.90;;;;;;5051905;28;20064;-41
2022/04/23 05:07:21;;;;;;;18.70;12.35;;;7.50;99.90;;;;;;5051578;28;20148;-43
2022/04/23 05:09:47;;;;;;;16.88;12.88;;;7.70;99.90;;;;;;5051721;28;20123;-42
2022/04/23 05:12:12;;;;;;;14.60;11.65;;;7.90;99.90;;;;;;5051632;28;20061;-41
2022/04/23 05:14:38;;;;;;;15.60;11.45;;;8.30;99.90;;;;;;5051347;28;20040;-41
2022/04/23 05:17:04;;;;;;;15.27;11.35;;;8.30;99.90;;;;;;5051050;28;20049;-41
2022/04/23 05:19:29;;;;;;;13.07;10.93;;;8.50;99.90;;;;;;5051164;28;20134;-41
2022/04/23 05:21:55;;;;;;;15.43;11.82;;;9.20;99.90;;;;;;5051642;28;20052;-43
2022/04/23 05:24:21;;;;;;;13.05;10.43;;;10.60;99.90;;;;;;5051480;28;20042;-42
2022/04/23 05:26:46;;;;;;;15.02;9.43;;;11.50;99.90;;;;;;5051718;28;20037;-42
2022/04/23 05:29:12;;;;;;;12.38;10.13;;;11.70;99.90;;;;;;5051169;28;20128;-41
2022/04/23 05:31:38;;;;;;;10.80;9.20;;;11.80;99.90;;;;;;5050482;28;20476;-42
2022/04/23 05:34:04;;;;;;;11.07;9.02;;;12.80;99.90;;;;;;5050995;28;20060;-41
2022/04/23 05:36:30;;;;;;;11.82;9.23;;;13.60;99.90;;;;;;5051308;28;20385;-43
2022/04/23 05:38:56;;;;;;;10.70;8.18;;;14.30;99.90;;;;;;5051065;28;20047;-44
2022/04/23 05:41:22;;;;;;;9.65;8.13;;;14.90;98.00;;;;;;5050512;28;20041;-41
2022/04/23 05:43:48;;;;;;;9.90;7.45;;;15.50;96.20;;;;;;5051156;28;20110;-42
2022/04/23 05:46:16;;;;;;;9.13;8.02;;;15.80;92.20;;;;;;5051180;28;20045;-42
2022/04/23 05:48:42;;;;;;;11.95;7.63;;;16.10;91.10;;;;;;5051042;28;20064;-41
2022/04/23 05:51:08;;;;;;;9.63;7.28;;;16.30;87.80;;;;;;5051008;28;20401;-42
2022/04/23 05:53:34;;;;;;;9.77;8.38;;;16.40;83.20;;;;;;5050613;28;20252;-42
2022/04/23 05:55:59;;;;;;;9.98;7.57;;;16.60;82.50;;;;;;5050883;28;20114;-41
2022/04/23 05:58:25;;;;;;;8.88;7.07;;;16.90;80.80;;;;;;5050193;28;20599;-42
2022/04/23 06:00:51;;;;;;;10.23;7.82;;;17.20;78.90;;;;;;5050741;28;20083;-41
2022/04/23 06:03:17;;;;;;;10.10;7.88;;;17.40;76.90;;;;;;5051185;28;20391;-43
2022/04/23 06:05:43;;;;;;;12.00;7.03;;;17.60;75.50;;;;;;5050622;28;20496;-41
2022/04/23 06:08:09;;;;;;;10.30;7.10;;;17.80;74.30;;;;;;5050831;28;20051;-41
2022/04/23 06:10:35;;;;;;;7.80;6.32;;;18.00;73.10;;;;;;5050274;28;20041;-41
2022/04/23 06:13:01;;;;;;;9.48;7.03;;;17.80;72.20;;;;;;5049539;28;20062;-42
2022/04/23 06:15:26;;;;;;;14.32;7.65;;;17.80;72.20;;;;;;5048698;28;20044;-42
2022/04/23 06:17:52;;;;;;;9.43;7.15;;;18.10;70.60;;;;;;5049612;28;20116;-41
2022/04/23 06:20:18;;;;;;;11.10;7.05;;;18.00;68.80;;;;;;5049912;28;20041;-43
2022/04/23 06:22:43;;;;;;;8.45;7.03;;;18.30;68.70;;;;;;5049639;28;20045;-43
2022/04/23 06:25:09;;;;;;;9.27;7.53;;;18.40;67.10;;;;;;5050124;28;20126;-42
2022/04/23 06:27:36;;;;;;;13.98;7.45;;;18.30;65.60;;;;;;5049860;28;20531;-41
2022/04/23 06:30:04;;;;;;;9.80;7.30;;;18.50;65.60;;;;;;5049595;28;20057;-42
2022/04/23 06:32:30;;;;;;;10.98;8.15;;;18.50;65.10;;;;;;5049601;28;20801;-43
2022/04/23 06:34:56;;;;;;;9.25;6.93;;;18.70;65.40;;;;;;5050063;28;20049;-41
2022/04/23 06:37:21;;;;;;;9.48;6.85;;;19.00;64.20;;;;;;5050233;28;20045;-42
2022/04/23 06:39:47;;;;;;;9.02;6.75;;;19.00;63.00;;;;;;5049160;28;20067;-42
2022/04/23 06:42:12;;;;;;;8.60;6.75;;;19.10;62.80;;;;;;5049612;28;20045;-43
2022/04/23 06:44:38;;;;;;;11.45;7.43;;;19.00;61.60;;;;;;5049325;28;20122;-42
2022/04/23 06:47:04;;;;;;;9.68;7.22;;;18.80;61.70;;;;;;5049148;28;20041;-42
2022/04/23 06:49:30;;;;;;;8.65;7.60;;;18.80;61.70;;;;;;5049482;28;20037;-43
2022/04/23 06:51:56;;;;;;;8.27;7.18;;;19.10;62.10;;;;;;5049159;28;20435;-42
2022/04/23 06:54:23;;;;;;;7.97;6.80;;;19.20;60.60;;;;;;5049489;28;20447;-41
2022/04/23 06:56:48;;;;;;;8.35;6.57;;;19.40;60.40;;;;;;5049254;28;20049;-42
2022/04/23 06:59:14;;;;;;;8.02;7.10;;;19.70;60.10;;;;;;5049341;28;20151;-44
2022/04/23 07:01:40;;;;;;;9.43;6.47;;;19.80;58.90;;;;;;5049220;28;20054;-41
2022/04/23 07:04:11;;;;;;;10.00;7.85;;;19.80;58.70;;;;;;5049153;28;20492;-42
2022/04/23 07:06:37;;;;;;;9.23;7.10;;;19.80;57.90;;;;;;5049250;28;20040;-43
2022/04/23 07:09:04;;;;;;;8.55;6.57;;;19.70;58.30;;;;;;5048817;28;20041;-43
2022/04/23 07:11:30;;;;;;;13.52;7.05;;;19.70;58.40;;;;;;5049006;28;20079;-44
2022/04/23 07:13:55;;;;;;;9.30;6.97;;;19.60;57.60;;;;;;5049227;28;20072;-42
2022/04/23 07:16:21;;;;;;;10.20;7.22;;;19.40;57.20;;;;;;5048453;28;20131;-43
2022/04/23 07:18:47;;;;;;;10.75;6.78;;;19.30;57.70;;;;;;5048461;28;20066;-45
2022/04/23 07:21:13;;;;;;;7.55;6.32;;;19.40;57.70;;;;;;5049009;28;20504;-43
2022/04/23 07:26:34;;;;;;;9.18;7.40;;;19.50;57.20;;;;;;5047561;28;20055;-43
2022/04/23 07:29:02;;;;;;;9.88;6.45;;;18.70;57.60;;;;;;5048933;28;20053;-43
2022/04/23 07:31:29;;;;;;;8.73;6.82;;;18.30;58.50;;;;;;5048472;28;20060;-44
2022/04/23 07:39:24;;;;;;;8.70;7.07;;;17.00;60.60;;;;;;5048975;28;20049;-43
2022/04/23 07:41:49;;;;;;;7.50;6.30;;;16.60;61.80;;;;;;5048488;28;20523;-43
2022/04/23 07:44:15;;;;;;;9.50;5.97;;;16.20;62.50;;;;;;5049035;28;20052;-43
2022/04/23 07:46:40;;;;;;;12.02;7.05;;;15.90;62.70;;;;;;5046344;28;20135;-43
2022/04/23 07:49:06;;;;;;;9.50;7.05;;;15.40;63.90;;;;;;5048520;28;20080;-47
2022/04/23 07:51:32;;;;;;;9.60;8.23;;;14.90;65.70;;;;;;5048290;28;20045;-44
2022/04/23 07:53:57;;;;;;;8.25;7.15;;;14.80;66.90;;;;;;5047920;28;20041;-44
2022/04/23 07:56:23;;;;;;;9.48;7.43;;;14.90;66.70;;;;;;5048536;28;20056;-44
2022/04/23 07:58:49;;;;;;;12.63;6.90;;;15.50;66.20;;;;;;5048370;28;20037;-43
2022/04/23 08:01:15;;;;;;;9.88;7.97;;;15.70;64.70;;;;;;5048353;28;20412;-44
2022/04/23 08:03:41;;;;;;;8.48;7.15;;;15.90;64.20;;;;;;5047968;28;20401;-43
2022/04/23 08:06:10;;;;;;;12.05;7.63;;;16.30;63.20;;;;;;5047127;28;20049;-43
2022/04/23 08:08:36;;;;;;;12.80;7.47;;;16.70;63.40;;;;;;5048335;28;20511;-44
2022/04/23 08:11:02;;;;;;;8.60;6.95;;;19.80;72.30;;;;;;5048537;28;20068;-43
2022/04/23 08:13:28;;;;;;;8.82;6.50;;;18.20;62.20;;;;;;5048453;28;20498;-43
2022/04/23 08:15:54;;;;;;;8.02;6.60;;;19.20;59.40;;;;;;5047843;28;20178;-45
2022/04/23 08:18:19;;;;;;;8.63;6.85;;;20.20;57.70;;;;;;5048284;28;20048;-47
2022/04/23 08:20:45;;;;;;;7.30;6.20;;;21.00;55.80;;;;;;5048436;28;20164;-45
2022/04/23 08:23:11;;;;;;;10.38;6.07;;;21.20;53.50;;;;;;5047836;28;20045;-44
2022/04/23 08:25:37;;;;;;;7.45;6.32;;;21.30;53.40;;;;;;5048337;28;20044;-45
2022/04/23 08:30:47;;;;;;;8.40;5.80;;;21.70;52.00;;;;;;5048068;28;20060;-44
2022/04/23 08:33:13;;;;;;;8.90;6.18;;;21.90;52.00;;;;;;5048218;28;20049;-45
2022/04/23 08:35:40;;;;;;;9.15;6.97;;;22.10;50.40;;;;;;5049696;28;20044;-44
2022/04/23 08:38:08;;;;;;;7.63;5.45;;;21.90;49.70;;;;;;5051458;28;20056;-44
2022/04/23 08:40:41;;;;;;;7.53;6.78;;;21.80;48.90;;;;;;5051760;28;20352;-45
2022/04/23 08:43:07;;;;;;;8.45;6.13;;;21.50;49.20;;;;;;5051570;28;20488;-44
2022/04/23 08:45:37;;;;;;;8.65;6.82;;;21.60;49.70;;;;;;5051738;28;20041;-43
2022/04/23 08:48:09;;;;;;;11.85;5.78;;;22.10;49.20;;;;;;5052124;28;20045;-45
2022/04/23 08:50:38;;;;;;;8.23;6.07;;;22.20;48.30;;;;;;5051925;28;20052;-46
2022/04/23 08:53:18;;;;;;;9.23;6.18;;;22.30;48.40;;;;;;5051555;28;20037;-46
2022/04/23 08:55:46;;;;;;;6.75;5.80;;;22.60;48.50;;;;;;5051499;28;20044;-42
2022/04/23 08:58:13;;;;;;;7.07;6.35;;;22.70;47.50;;;;;;5052067;28;20049;-44
2022/04/23 09:00:40;;;;;;;7.35;5.60;;;22.80;47.40;;;;;;5051709;28;20036;-43
2022/04/23 09:03:12;;;;;;;7.45;5.18;;;22.90;46.50;;;;;;5051401;28;20064;-44
2022/04/23 09:05:37;;;;;;;;;;;23.10;45.50;;;;;;5052136;28;20041;-44
2022/04/23 09:08:05;;;;;;;11.13;5.07;;;22.40;44.70;;;;;;5051339;28;20365;-44
2022/04/23 09:10:46;;;;;;;7.05;4.70;;;20.90;45.30;;;;;;5051323;28;20091;-44
2022/04/23 09:13:31;;;;;;;12.18;5.70;;;22.50;45.50;;;;;;5051366;28;20056;-45
2022/04/23 09:24:20;;;;;;;8.48;5.70;;;23.20;44.60;;;;;;5050747;28;20052;-47
2022/04/23 09:27:07;;;;;;;12.18;5.20;;;23.30;44.20;;;;;;5051112;28;20045;-46
2022/04/23 09:29:33;;;;;;;7.70;6.00;;;23.70;43.60;;;;;;5049843;28;20562;-46
2022/04/23 09:32:14;;;;;;;9.73;5.20;;;23.70;43.40;;;;;;5050173;28;20128;-46
2022/04/23 09:34:41;;;;;;;6.63;5.38;;;24.00;43.40;;;;;;5047687;28;20106;-46
2022/04/23 09:37:08;;;;;;;6.07;5.40;;;24.10;42.60;;;;;;5011938;28;20044;-44
2022/04/23 09:39:36;;;;;;;5.97;5.03;;;23.60;42.00;;;;;;5048271;28;20048;-48
2022/04/23 09:42:18;;;;;;;7.78;5.82;;;23.30;43.50;;;;;;5050605;28;20396;-45
2022/04/23 09:44:45;;;;;;;12.18;6.07;;;23.40;43.30;;;;;;5050005;28;20048;-44
2022/04/23 09:47:27;;;;;;;11.95;5.30;;;23.70;43.70;;;;;;5048849;28;20051;-46
2022/04/23 09:49:56;;;;;;;8.10;6.07;;;23.50;42.90;;;;;;5048275;28;20110;-47
2022/04/23 09:52:28;;;;;;;7.13;6.15;;;23.10;43.10;;;;;;5049210;28;20076;-46
2022/04/23 09:54:56;;;;;;;8.90;5.97;;;22.80;43.70;;;;;;5049533;28;20041;-45
2022/04/23 09:57:28;;;;;;;6.88;5.75;;;22.60;44.10;;;;;;5050532;28;20047;-43
2022/04/23 09:59:55;;;;;;;13.23;6.90;;;22.40;44.60;;;;;;5049504;28;20365;-40
2022/04/23 10:02:30;;;;;;;15.68;6.78;;;22.30;45.00;;;;;;5049168;28;20060;-39
2022/04/23 10:04:58;;;;;;;11.73;5.95;;;22.40;44.80;;;;;;5048820;28;20056;-43
2022/04/23 10:07:27;;;;;;;7.03;5.63;;;22.30;45.20;;;;;;5049099;28;20079;-44
2022/04/23 10:09:54;;;;;;;9.02;6.20;;;22.30;44.60;;;;;;5049464;28;20110;-47
2022/04/23 10:12:31;;;;;;;8.18;5.63;;;22.30;44.10;;;;;;5049586;28;20102;-43
2022/04/23 10:14:59;;;;;;;7.22;5.38;;;22.60;44.00;;;;;;5048354;28;20648;-45
2022/04/23 10:17:28;;;;;;;9.77;4.93;;;23.00;44.00;;;;;;5048893;28;20404;-48
2022/04/23 10:19:55;;;;;;;7.40;5.95;;;23.20;43.60;;;;;;5046635;28;20499;-40
2022/04/23 10:22:52;;;;;;;9.20;5.55;;;23.00;43.10;;;;;;5050482;28;20041;-47
2022/04/23 10:25:46;;;;;;;12.98;6.15;;;23.00;43.90;;;;;;5049682;28;20090;-46
2022/04/23 10:28:12;;;;;;;7.80;5.97;;;22.80;43.30;;;;;;5038052;28;20081;-36
2022/04/23 10:30:38;;;;;;;10.20;6.32;;;22.80;43.20;;;;;;5049718;28;20490;-35
2022/04/23 10:33:25;;;;;;;7.43;5.40;;;22.80;42.70;;;;;;5049678;28;20092;-36
2022/04/23 10:36:11;;;;;;;7.35;5.72;;;22.30;42.80;;;;;;5049956;28;20067;-35
2022/04/23 10:38:40;;;;;;;8.32;5.38;;;21.80;43.60;;;;;;5049531;28;20048;-37
2022/04/23 10:41:07;;;;;;;8.77;5.88;;;21.50;44.10;;;;;;5049464;28;20044;-37
2022/04/23 10:43:33;;;;;;;10.00;6.40;;;21.30;44.00;;;;;;5049996;28;20699;-37
2022/04/23 10:46:00;;;;;;;9.55;6.30;;;20.60;45.00;;;;;;5049705;28;20037;-37
2022/04/23 10:48:28;;;;;;;10.25;6.40;;;19.50;46.70;;;;;;5049999;28;20150;-37
2022/04/23 10:51:15;;;;;;;8.45;6.22;;;18.50;48.20;;;;;;5050020;28;20049;-37
2022/04/23 10:53:43;;;;;;;7.80;6.15;;;17.70;49.50;;;;;;5050117;28;20048;-37
2022/04/23 10:56:13;;;;;;;9.27;6.75;;;17.20;50.80;;;;;;5049796;28;20562;-37
2022/04/23 10:58:41;;;;;;;8.93;6.38;;;16.90;52.20;;;;;;5049421;28;20079;-37
2022/04/23 11:01:31;;;;;;;8.77;6.68;;;16.70;52.10;;;;;;5049534;28;20045;-37
2022/04/23 11:04:06;;;;;;;9.80;7.05;;;16.70;53.50;;;;;;5050341;28;20037;-37
2022/04/23 11:12:22;;;;;;;10.98;7.07;;;16.70;53.80;;;;;;5049411;28;20052;-38
2022/04/23 11:14:52;;;;;;;9.18;7.07;;;16.70;53.20;;;;;;5049373;28;20044;-37
2022/04/23 11:17:48;;;;;;;8.48;7.40;;;16.60;53.70;;;;;;5049347;28;20056;-37
2022/04/23 11:20:29;;;;;;;12.48;7.20;;;16.60;54.70;;;;;;5048144;28;20128;-37
2022/04/23 11:22:56;;;;;;;8.80;6.53;;;16.70;54.20;;;;;;5049635;28;20049;-37
2022/04/23 11:25:23;;;;;;;12.25;8.00;;;16.80;53.90;;;;;;5049146;28;20561;-38
2022/04/23 11:27:50;;;;;;;9.95;7.13;;;16.80;53.70;;;;;;5049421;28;20045;-38
2022/04/23 11:30:29;;;;;;;9.18;7.35;;;16.80;54.70;;;;;;5048855;28;20111;-38
2022/04/23 11:33:07;;;;;;;11.15;7.30;;;16.70;53.50;;;;;;5049393;28;20590;-38
2022/04/23 11:35:33;;;;;;;9.40;6.95;;;16.80;53.90;;;;;;5048956;28;20071;-38
2022/04/23 11:37:59;;;;;;;9.30;6.85;;;16.70;53.80;;;;;;5047865;28;20131;-38
2022/04/23 11:40:28;;;;;;;8.15;6.20;;;16.70;53.70;;;;;;5048800;28;20442;-37
2022/04/23 11:42:54;;;;;;;10.63;6.22;;;16.80;53.50;;;;;;5049323;28;20052;-38
2022/04/23 11:45:20;;;;;;;7.90;5.70;;;17.00;53.30;;;;;;5048927;28;20687;-38
2022/04/23 11:47:46;;;;;;;12.68;7.07;;;17.10;52.70;;;;;;5049359;28;20044;-38
2022/04/23 11:50:16;;;;;;;11.55;5.88;;;17.20;51.70;;;;;;5049143;28;20047;-38
2022/04/23 11:52:44;;;;;;;7.85;5.55;;;17.30;51.30;;;;;;5049377;28;20122;-37
2022/04/23 11:55:23;;;;;;;9.43;5.32;;;17.30;50.90;;;;;;5048752;28;20053;-38
2022/04/23 11:57:57;;;;;;;8.68;6.00;;;17.20;51.20;;;;;;5048863;28;20174;-37
2022/04/23 12:00:24;;;;;;;7.68;5.68;;;17.10;51.00;;;;;;5048654;28;20353;-38
2022/04/23 12:02:50;;;;;;;7.80;5.25;;;17.10;51.20;;;;;;5048768;28;20032;-38
2022/04/23 12:05:28;;;;;;;15.93;6.90;;;17.10;51.30;;;;;;5048712;28;20045;-38
2022/04/23 12:07:54;;;;;;;6.47;5.50;;;17.20;50.70;;;;;;5049062;28;20535;-38
2022/04/23 12:10:28;;;;;;;8.82;6.50;;;17.20;51.10;;;;;;5050078;28;20377;-38
2022/04/23 12:12:56;;;;;;;9.75;5.38;;;17.30;51.20;;;;;;5052935;28;20040;-38
2022/04/23 12:15:22;;;;;;;6.60;5.22;;;17.40;51.00;;;;;;5052671;28;20053;-38
2022/04/23 12:17:51;;;;;;;8.38;5.60;;;17.50;49.90;;;;;;5052655;28;20133;-38
2022/04/23 12:20:21;;;;;;;7.43;5.18;;;17.60;50.20;;;;;;5051591;28;20124;-38
2022/04/23 12:23:06;;;;;;;8.27;4.68;;;17.50;49.20;;;;;;5052643;28;20041;-38
2022/04/23 12:25:33;;;;;;;11.00;5.07;;;17.50;49.70;;;;;;5052569;28;20037;-37
2022/04/23 12:42:06;;;;;;;14.75;5.20;;;17.40;49.40;;;;;;5051564;28;20064;-38
2022/04/23 12:44:44;;;;;;;9.15;5.40;;;17.60;48.70;;;;;;5051641;28;20060;-38
2022/04/23 12:47:16;;;;;;;9.15;5.13;;;17.60;49.40;;;;;;5051369;28;20456;-38
2022/04/23 12:49:50;;;;;;;5.72;5.00;;;17.60;49.50;;;;;;5051786;28;20049;-45
2022/04/23 12:52:21;;;;;;;5.85;5.10;;;17.60;49.00;;;;;;5051049;28;20124;-37
2022/04/23 12:55:12;;;;;;;8.93;5.40;;;17.60;49.30;;;;;;5050680;28;20140;-44
2022/04/23 12:57:39;;;;;;;6.78;4.93;;;17.70;49.50;;;;;;5051240;28;20044;-45
2022/04/23 13:00:06;;;;;;;9.52;5.03;;;17.70;48.90;;;;;;5051682;28;20036;-44
2022/04/23 13:02:36;;;;;;;20.77;5.50;;;17.70;49.10;;;;;;5051378;28;20447;-44
2022/04/23 13:05:09;;;;;;;7.93;4.22;;;17.70;48.90;;;;;;5051592;28;20029;-45
2022/04/23 13:10:19;;;;;;;8.38;4.40;;;17.80;48.20;;;;;;5050912;28;20060;-43
2022/04/23 13:12:45;;;;;;;6.70;3.95;;;17.70;48.60;;;;;;5051218;28;20396;-43
2022/04/23 13:15:15;;;;;;;5.43;3.95;;;17.60;47.70;;;;;;5051319;28;20113;-44
2022/04/23 13:17:42;;;;;;;6.00;4.15;;;17.60;48.20;;;;;;5051422;28;20048;-43
2022/04/23 13:20:09;;;;;;;6.88;5.07;;;17.60;48.30;;;;;;5051102;28;20050;-43
2022/04/23 13:22:35;;;;;;;5.85;3.58;;;17.60;48.30;;;;;;5050341;28;20049;-44
2022/04/23 13:25:03;;;;;;;6.40;4.32;;;17.50;48.20;;;;;;5051539;28;20451;-43
2022/04/23 13:27:31;;;;;;;4.18;2.78;;;17.50;48.00;;;;;;5050916;28;20048;-43
2022/04/23 13:29:58;;;;;;;5.85;3.80;;;17.60;47.30;;;;;;5050847;28;20103;-43
2022/04/23 13:32:24;;;;;;;7.20;3.83;;;17.50;46.90;;;;;;5051276;28;20435;-43